createdAt,value
2022-10-28T00:01:15.191Z,100556.38
2022-10-28T00:03:44.947Z,100557.44
2022-10-28T00:06:25.283Z,100548.03
2022-10-28T00:08:55.089Z,100552.31
2022-10-28T00:11:25.496Z,100555.00
2022-10-28T00:13:57.091Z,100547.81
2022-10-28T00:16:29.321Z,100534.47
2022-10-28T00:18:58.245Z,100545.66
2022-10-28T00:21:29.130Z,100542.84
2022-10-28T00:23:56.518Z,100546.28
2022-10-28T00:26:42.669Z,100546.34
2022-10-28T00:29:18.303Z,100547.78
2022-10-28T00:31:45.599Z,100552.84
2022-10-28T00:34:15.390Z,100547.75
2022-10-28T00:36:44.527Z,100545.13
2022-10-28T00:39:15.505Z,100538.00
2022-10-28T00:41:46.282Z,100545.91
2022-10-28T00:44:44.228Z,100544.84
2022-10-28T00:47:15.178Z,100547.88
2022-10-28T00:49:44.684Z,100549.09
2022-10-28T00:52:18.922Z,100544.91
2022-10-28T00:54:46.283Z,100541.38
2022-10-28T00:57:17.118Z,100536.50
2022-10-28T00:59:48.885Z,100543.75
2022-10-28T01:02:16.409Z,100540.09
2022-10-28T01:04:44.541Z,100543.41
2022-10-28T01:07:11.479Z,100536.56
2022-10-28T01:09:40.520Z,100539.19
2022-10-28T01:12:27.552Z,100532.06
2022-10-28T01:14:54.272Z,100533.50
2022-10-28T01:17:36.422Z,100525.72
2022-10-28T01:20:41.772Z,100526.47
2022-10-28T01:23:16.566Z,100508.63
2022-10-28T01:26:01.943Z,100524.28
2022-10-28T01:28:50.412Z,100513.13
2022-10-28T01:31:41.074Z,100513.13
2022-10-28T01:34:32.159Z,100525.25
2022-10-28T01:37:17.449Z,100524.94
2022-10-28T01:39:53.681Z,100525.31
2022-10-28T01:42:29.456Z,100521.41
2022-10-28T01:45:20.906Z,100520.69
2022-10-28T01:47:54.573Z,100524.19
2022-10-28T01:50:27.405Z,100520.91
2022-10-28T01:52:58.396Z,100521.81
2022-10-28T01:55:36.562Z,100511.53
2022-10-28T01:58:05.252Z,100516.75
2022-10-28T02:00:34.570Z,100512.53
2022-10-28T02:03:01.453Z,100509.72
2022-10-28T02:05:48.707Z,100512.31
2022-10-28T02:08:18.328Z,100505.56
2022-10-28T02:11:03.365Z,100512.63
2022-10-28T02:13:52.965Z,100508.31
2022-10-28T02:16:25.486Z,100510.84
2022-10-28T02:19:13.680Z,100509.06
2022-10-28T02:21:49.945Z,100511.53
2022-10-28T02:24:22.812Z,100506.69
2022-10-28T02:27:12.866Z,100513.72
2022-10-28T02:30:06.014Z,100507.44
2022-10-28T02:32:38.862Z,100514.50
2022-10-28T02:35:10.679Z,100503.50
2022-10-28T02:37:40.702Z,100497.38
2022-10-28T02:40:13.015Z,100506.41
2022-10-28T02:42:58.394Z,100509.66
2022-10-28T02:45:40.300Z,100510.09
2022-10-28T02:48:29.555Z,100502.38
2022-10-28T02:51:06.379Z,100504.75
2022-10-28T02:53:44.541Z,100509.34
2022-10-28T02:56:15.112Z,100497.09
2022-10-28T02:58:42.521Z,100504.53
2022-10-28T03:01:09.544Z,100502.19
2022-10-28T03:03:36.905Z,100496.69
2022-10-28T03:06:04.219Z,100500.59
2022-10-28T03:08:31.162Z,100492.28
2022-10-28T03:10:58.202Z,100495.19
2022-10-28T03:13:24.982Z,100486.09
2022-10-28T03:15:52.125Z,100495.09
2022-10-28T03:18:19.004Z,100495.19
2022-10-28T03:20:45.872Z,100494.13
2022-10-28T03:23:13.463Z,100498.66
2022-10-28T03:25:40.405Z,100494.38
2022-10-28T03:28:07.312Z,100491.59
2022-10-28T03:30:42.331Z,100498.47
2022-10-28T03:33:09.482Z,100499.63
2022-10-28T03:35:36.317Z,100495.50
2022-10-28T03:38:03.582Z,100498.75
2022-10-28T03:40:30.523Z,100504.13
2022-10-28T03:42:57.652Z,100501.22
2022-10-28T03:45:26.415Z,100500.97
2022-10-28T03:47:53.692Z,100504.44
2022-10-28T03:50:21.076Z,100507.06
2022-10-28T03:52:48.234Z,100503.84
2022-10-28T03:55:15.182Z,100509.09
2022-10-28T03:57:42.140Z,100501.22
2022-10-28T04:00:09.802Z,100504.78
2022-10-28T04:02:39.122Z,100505.16
2022-10-28T04:05:07.783Z,100505.09
2022-10-28T04:07:35.362Z,100510.56
2022-10-28T04:10:02.274Z,100501.22
2022-10-28T04:12:30.322Z,100506.38
2022-10-28T04:14:57.378Z,100506.06
2022-10-28T04:17:24.365Z,100497.91
2022-10-28T04:19:51.166Z,100504.72
2022-10-28T04:22:18.454Z,100506.31
2022-10-28T04:24:45.284Z,100498.13
2022-10-28T04:27:12.151Z,100502.44
2022-10-28T04:29:39.012Z,100504.03
2022-10-28T04:32:05.951Z,100502.88
2022-10-28T04:34:32.944Z,100502.41
2022-10-28T04:37:00.947Z,100504.16
2022-10-28T04:39:27.892Z,100505.84
2022-10-28T04:41:55.225Z,100508.50
2022-10-28T04:44:22.208Z,100516.41
2022-10-28T04:46:48.995Z,100513.94
2022-10-28T04:49:16.098Z,100513.19
2022-10-28T04:51:43.394Z,100511.28
2022-10-28T04:54:10.524Z,100508.59
2022-10-28T04:56:37.679Z,100511.94
2022-10-28T04:59:04.752Z,100516.19
2022-10-28T05:01:31.673Z,100513.88
2022-10-28T05:04:00.784Z,100518.00
2022-10-28T05:06:28.929Z,100518.22
2022-10-28T05:08:55.923Z,100514.94
2022-10-28T05:11:29.388Z,100511.81
2022-10-28T05:13:56.375Z,100512.13
2022-10-28T05:16:23.500Z,100518.34
2022-10-28T05:18:50.365Z,100521.28
2022-10-28T05:21:17.437Z,100526.56
2022-10-28T05:23:44.322Z,100533.81
2022-10-28T05:26:11.184Z,100526.81
2022-10-28T05:28:38.133Z,100522.75
2022-10-28T05:31:05.017Z,100531.00
2022-10-28T05:33:33.736Z,100527.53
2022-10-28T05:36:01.097Z,100533.28
2022-10-28T05:38:28.223Z,100534.06
2022-10-28T05:40:55.379Z,100541.91
2022-10-28T05:43:22.515Z,100537.91
2022-10-28T05:45:57.131Z,100539.78
2022-10-28T05:48:24.576Z,100540.88
2022-10-28T05:50:51.456Z,100540.75
2022-10-28T05:53:18.284Z,100545.88
2022-10-28T05:55:47.788Z,100546.88
2022-10-28T05:58:15.333Z,100553.59
2022-10-28T06:00:42.091Z,100552.91
2022-10-28T06:03:12.351Z,100551.19
2022-10-28T06:05:45.323Z,100537.19
2022-10-28T06:08:13.779Z,100551.13
2022-10-28T06:10:41.979Z,100552.97
2022-10-28T06:13:07.901Z,100550.22
2022-10-28T06:15:34.980Z,100554.63
2022-10-28T06:18:01.823Z,100556.31
2022-10-28T06:20:28.733Z,100553.22
2022-10-28T06:22:56.423Z,100564.31
2022-10-28T06:25:24.909Z,100553.41
2022-10-28T06:27:54.331Z,100562.19
2022-10-28T06:30:22.561Z,100561.47
2022-10-28T06:32:49.646Z,100562.50
2022-10-28T06:35:17.255Z,100550.84
2022-10-28T06:37:44.058Z,100554.13
2022-10-28T06:40:10.997Z,100555.88
2022-10-28T06:42:45.674Z,100557.09
2022-10-28T06:45:12.701Z,100560.41
2022-10-28T06:47:41.692Z,100562.69
2022-10-28T06:50:09.033Z,100563.66
2022-10-28T06:52:36.065Z,100562.47
2022-10-28T06:55:02.964Z,100566.22
2022-10-28T06:57:31.022Z,100569.06
2022-10-28T06:59:57.941Z,100567.09
2022-10-28T07:02:24.784Z,100569.41
2022-10-28T07:04:51.855Z,100571.16
2022-10-28T07:07:19.759Z,100576.94
2022-10-28T07:09:46.720Z,100570.53
2022-10-28T07:12:13.710Z,100577.53
2022-10-28T07:14:43.005Z,100571.06
2022-10-28T07:17:09.893Z,100575.03
2022-10-28T07:19:36.806Z,100573.66
2022-10-28T07:22:03.662Z,100578.41
2022-10-28T07:24:30.600Z,100585.53
2022-10-28T07:26:57.944Z,100583.53
2022-10-28T07:29:25.315Z,100576.56
2022-10-28T07:31:54.840Z,100583.47
2022-10-28T07:34:27.005Z,100585.06
2022-10-28T07:36:55.365Z,100577.00
2022-10-28T07:39:22.551Z,100583.28
2022-10-28T07:41:49.523Z,100569.88
2022-10-28T07:44:16.520Z,100579.97
2022-10-28T07:46:43.499Z,100582.00
2022-10-28T07:49:10.928Z,100578.53
2022-10-28T07:51:37.797Z,100580.72
2022-10-28T07:54:06.074Z,100572.06
2022-10-28T07:56:32.894Z,100585.44
2022-10-28T07:59:00.619Z,100580.03
2022-10-28T08:01:27.652Z,100580.34
2022-10-28T08:03:54.824Z,100578.56
2022-10-28T08:06:22.258Z,100575.50
2022-10-28T08:08:54.716Z,100583.13
2022-10-28T08:11:25.575Z,100579.66
2022-10-28T08:13:53.768Z,100574.50
2022-10-28T08:16:20.770Z,100573.94
2022-10-28T08:18:48.182Z,100573.59
2022-10-28T08:21:15.447Z,100570.88
2022-10-28T08:23:46.681Z,100575.34
2022-10-28T08:26:15.098Z,100574.88
2022-10-28T08:28:42.827Z,100567.81
2022-10-28T08:31:12.493Z,100564.38
2022-10-28T08:33:42.813Z,100575.75
2022-10-28T08:36:12.725Z,100568.66
2022-10-28T08:38:45.157Z,100565.72
2022-10-28T08:41:30.627Z,100564.59
2022-10-28T08:44:23.978Z,100561.88
2022-10-28T08:47:09.358Z,100564.88
2022-10-28T08:49:41.724Z,100567.28
2022-10-28T08:52:30.493Z,100565.41
2022-10-28T08:55:07.745Z,100560.03
2022-10-28T08:57:47.367Z,100565.22
2022-10-28T09:00:28.529Z,100557.22
2022-10-28T09:03:14.748Z,100550.72
2022-10-28T09:05:45.168Z,100554.75
2022-10-28T09:08:29.592Z,100557.47
2022-10-28T09:11:34.822Z,100550.81
2022-10-28T09:14:30.132Z,100555.16
2022-10-28T09:17:14.047Z,100550.00
2022-10-28T09:19:52.975Z,100547.94
2022-10-28T09:23:01.071Z,100546.91
2022-10-28T09:25:49.721Z,100541.50
2022-10-28T09:28:46.685Z,100547.84
2022-10-28T09:31:37.961Z,100545.66
2022-10-28T09:34:14.425Z,100544.38
2022-10-28T09:36:46.704Z,100534.78
2022-10-28T09:39:28.050Z,100538.81
2022-10-28T09:41:59.917Z,100538.94
2022-10-28T09:44:54.375Z,100532.06
2022-10-28T09:47:26.891Z,100526.38
2022-10-28T09:50:00.069Z,100532.28
2022-10-28T09:52:33.649Z,100532.25
2022-10-28T09:55:08.056Z,100525.56
2022-10-28T09:57:35.311Z,100529.03
2022-10-28T10:00:02.421Z,100527.38
2022-10-28T10:02:32.159Z,100524.16
2022-10-28T10:05:00.858Z,100524.78
2022-10-28T10:07:35.958Z,100523.25
2022-10-28T10:10:10.653Z,100526.88
2022-10-28T10:12:39.240Z,100521.78
2022-10-28T10:15:11.930Z,100524.19
2022-10-28T10:17:48.994Z,100512.84
2022-10-28T10:20:19.893Z,100514.50
2022-10-28T10:22:49.409Z,100518.75
2022-10-28T10:25:19.258Z,100519.81
2022-10-28T10:28:15.812Z,100518.66
2022-10-28T10:30:52.666Z,100520.94
2022-10-28T10:33:26.738Z,100516.13
2022-10-28T10:36:00.181Z,100506.47
2022-10-28T10:38:29.133Z,100510.34
2022-10-28T10:40:56.895Z,100515.28
2022-10-28T10:43:37.065Z,100510.00
2022-10-28T10:46:05.317Z,100513.03
2022-10-28T10:48:38.619Z,100505.72
2022-10-28T10:51:07.167Z,100509.28
2022-10-28T10:53:35.511Z,100504.13
2022-10-28T10:56:05.516Z,100498.91
2022-10-28T10:58:40.281Z,100497.03
2022-10-28T11:01:09.724Z,100493.84
2022-10-28T11:03:50.283Z,100490.84
2022-10-28T11:06:30.501Z,100483.47
2022-10-28T11:09:02.806Z,100489.25
2022-10-28T11:11:36.273Z,100478.16
2022-10-28T11:14:10.144Z,100487.75
2022-10-28T11:17:00.461Z,100481.28
2022-10-28T11:19:37.272Z,100483.69
2022-10-28T11:22:38.449Z,100473.50
2022-10-28T11:25:34.783Z,100483.31
2022-10-28T11:28:21.845Z,100471.28
2022-10-28T11:31:00.519Z,100469.22
2022-10-28T11:34:09.235Z,100463.75
2022-10-28T11:37:10.196Z,100463.19
2022-10-28T11:40:14.064Z,100459.28
2022-10-28T11:43:18.543Z,100458.28
2022-10-28T11:45:51.560Z,100454.97
2022-10-28T11:48:33.180Z,100438.59
2022-10-28T11:51:18.215Z,100440.59
2022-10-28T11:54:13.343Z,100435.03
2022-10-28T11:56:47.656Z,100435.31
2022-10-28T11:59:17.385Z,100433.44
2022-10-28T12:02:12.239Z,100427.19
2022-10-28T12:04:53.515Z,100420.69
2022-10-28T12:07:35.419Z,100421.53
2022-10-28T12:10:19.719Z,100417.03
2022-10-28T12:13:05.253Z,100408.03
2022-10-28T12:15:31.991Z,100412.00
2022-10-28T12:18:11.610Z,100420.78
2022-10-28T12:20:42.634Z,100413.94
2022-10-28T12:23:17.164Z,100398.75
2022-10-28T12:25:48.193Z,100397.84
2022-10-28T12:28:21.774Z,100401.50
2022-10-28T12:30:51.014Z,100402.34
2022-10-28T12:33:23.943Z,100403.50
2022-10-28T12:35:57.893Z,100391.97
2022-10-28T12:38:38.574Z,100393.50
2022-10-28T12:41:14.423Z,100388.34
2022-10-28T12:44:03.084Z,100386.41
2022-10-28T12:46:54.860Z,100388.25
2022-10-28T12:49:43.992Z,100377.41
2022-10-28T12:52:25.121Z,100379.97
2022-10-28T12:55:01.897Z,100384.53
2022-10-28T12:57:31.013Z,100382.53
2022-10-28T13:00:02.230Z,100380.91
2022-10-28T13:02:35.732Z,100377.69
2022-10-28T13:05:04.897Z,100368.88
2022-10-28T13:07:47.560Z,100385.16
2022-10-28T13:13:09.330Z,100370.28
2022-10-28T13:15:57.900Z,100375.34
2022-10-28T13:18:34.891Z,100377.38
2022-10-28T13:21:34.285Z,100376.41
2022-10-28T13:24:21.464Z,100375.97
2022-10-28T13:26:49.293Z,100366.34
2022-10-28T13:29:29.502Z,100368.94
2022-10-28T13:31:56.546Z,100352.44
2022-10-28T13:34:35.299Z,100360.31
2022-10-28T13:37:05.081Z,100365.59
2022-10-28T13:39:34.793Z,100364.78
2022-10-28T13:42:13.889Z,100364.78
2022-10-28T13:44:49.509Z,100365.00
2022-10-28T13:47:33.829Z,100360.75
2022-10-28T13:50:06.560Z,100365.25
2022-10-28T13:52:45.159Z,100361.63
2022-10-28T13:55:43.646Z,100353.25
2022-10-28T13:58:23.194Z,100355.84
2022-10-28T14:00:53.260Z,100353.25
2022-10-28T14:03:27.295Z,100354.09
2022-10-28T14:05:59.665Z,100359.38
2022-10-28T14:08:38.533Z,100363.88
2022-10-28T14:11:32.997Z,100364.03
2022-10-28T14:14:03.504Z,100370.19
2022-10-28T14:16:38.345Z,100357.91
2022-10-28T14:19:11.302Z,100360.78
2022-10-28T14:21:48.830Z,100358.19
2022-10-28T14:24:35.984Z,100361.72
2022-10-28T14:27:08.741Z,100363.63
2022-10-28T14:30:04.199Z,100356.56
2022-10-28T14:32:30.940Z,100361.09
2022-10-28T14:35:19.390Z,100364.78
2022-10-28T14:38:12.235Z,100366.56
2022-10-28T14:40:41.925Z,100364.00
2022-10-28T14:43:30.327Z,100355.31
2022-10-28T14:46:19.237Z,100362.44
2022-10-28T14:48:52.459Z,100366.03
2022-10-28T14:51:24.473Z,100363.53
2022-10-28T14:53:56.653Z,100369.75
2022-10-28T14:56:29.095Z,100359.31
2022-10-28T14:59:05.197Z,100357.66
2022-10-28T15:01:50.787Z,100359.50
2022-10-28T15:04:18.438Z,100363.97
2022-10-28T15:06:48.240Z,100357.06
2022-10-28T15:09:27.434Z,100372.09
2022-10-28T15:11:59.950Z,100371.31
2022-10-28T15:14:26.716Z,100379.25
2022-10-28T15:16:53.895Z,100380.25
2022-10-28T15:19:24.775Z,100373.31
2022-10-28T15:22:01.824Z,100371.72
2022-10-28T15:24:28.693Z,100373.53
2022-10-28T15:26:56.683Z,100379.78
2022-10-28T15:29:24.552Z,100373.72
2022-10-28T15:32:26.780Z,100379.91
2022-10-28T15:34:53.793Z,100377.31
2022-10-28T15:37:27.020Z,100370.38
2022-10-28T15:40:12.559Z,100378.31
2022-10-28T15:42:59.500Z,100381.00
2022-10-28T15:45:29.627Z,100387.19
2022-10-28T15:47:58.585Z,100389.88
2022-10-28T15:50:34.125Z,100387.28
2022-10-28T15:53:09.995Z,100380.31
2022-10-28T15:58:35.890Z,100378.59
2022-10-28T16:01:03.101Z,100389.97
2022-10-28T16:03:48.476Z,100391.75
2022-10-28T16:06:24.109Z,100387.41
2022-10-28T16:09:09.828Z,100391.78
2022-10-28T16:11:42.713Z,100394.44
2022-10-28T16:14:46.604Z,100391.81
2022-10-28T16:17:18.313Z,100397.97
2022-10-28T16:20:00.473Z,100383.09
2022-10-28T16:22:29.489Z,100394.47
2022-10-28T16:24:56.718Z,100394.47
2022-10-28T16:27:31.925Z,100388.28
2022-10-28T16:29:58.979Z,100404.88
2022-10-28T16:32:31.750Z,100411.00
2022-10-28T16:35:01.151Z,100402.22
2022-10-28T16:37:31.082Z,100409.19
2022-10-28T16:40:00.976Z,100410.94
2022-10-28T16:42:27.955Z,100409.16
2022-10-28T16:44:54.782Z,100417.84
2022-10-28T16:47:24.426Z,100407.31
2022-10-28T16:49:54.509Z,100408.09
2022-10-28T16:52:28.234Z,100411.63
2022-10-28T16:54:55.931Z,100422.84
2022-10-28T16:59:51.365Z,100415.72
2022-10-28T17:02:27.736Z,100419.19
2022-10-28T17:04:55.388Z,100420.81
2022-10-28T17:07:30.821Z,100421.66
2022-10-28T17:09:57.743Z,100423.44
2022-10-28T17:12:27.084Z,100422.50
2022-10-28T17:14:54.113Z,100423.38
2022-10-28T17:17:23.436Z,100425.19
2022-10-28T17:19:50.408Z,100425.94
2022-10-28T17:22:17.377Z,100425.00
2022-10-28T17:24:44.302Z,100427.56
2022-10-28T17:27:11.145Z,100432.66
2022-10-28T17:29:39.041Z,100435.25
2022-10-28T17:32:09.907Z,100429.06
2022-10-28T17:34:36.773Z,100426.41
2022-10-28T17:37:04.504Z,100428.00
2022-10-28T17:39:31.348Z,100435.78
2022-10-28T17:42:16.770Z,100437.44
2022-10-28T17:44:43.582Z,100440.16
2022-10-28T17:47:12.304Z,100438.38
2022-10-28T17:49:39.306Z,100439.13
2022-10-28T17:52:06.141Z,100441.63
2022-10-28T17:54:33.053Z,100445.06
2022-10-28T17:57:00.025Z,100441.50
2022-10-28T17:59:26.913Z,100448.47
2022-10-28T18:01:54.915Z,100444.81
2022-10-28T18:04:26.682Z,100439.59
2022-10-28T18:06:55.372Z,100446.59
2022-10-28T18:09:22.555Z,100444.88
2022-10-28T18:11:50.755Z,100438.59
2022-10-28T18:14:18.053Z,100436.94
2022-10-28T18:16:46.124Z,100440.53
2022-10-28T18:19:13.784Z,100439.41
2022-10-28T18:21:40.596Z,100434.25
2022-10-28T18:24:07.898Z,100438.63
2022-10-28T18:26:36.983Z,100440.38
2022-10-28T18:29:05.662Z,100434.25
2022-10-28T18:31:33.840Z,100434.91
2022-10-28T18:34:01.698Z,100433.09
2022-10-28T18:36:34.459Z,100436.50
2022-10-28T18:39:04.654Z,100439.25
2022-10-28T18:41:32.246Z,100439.94
2022-10-28T18:44:01.606Z,100438.28
2022-10-28T18:46:30.067Z,100436.50
2022-10-28T18:51:27.568Z,100438.00
2022-10-28T18:53:55.773Z,100438.00
2022-10-28T18:56:30.922Z,100439.75
2022-10-28T18:58:58.745Z,100441.31
2022-10-28T19:01:28.328Z,100438.00
2022-10-28T19:04:00.327Z,100436.88
2022-10-28T19:06:32.970Z,100438.63
2022-10-28T19:09:02.345Z,100446.41
2022-10-28T19:11:31.374Z,100442.81
2022-10-28T19:14:00.301Z,100444.31
2022-10-28T19:16:28.577Z,100453.75
2022-10-28T19:18:57.393Z,100451.03
2022-10-28T19:21:25.523Z,100444.81
2022-10-28T19:23:52.927Z,100446.66
2022-10-28T19:26:20.170Z,100452.75
2022-10-28T19:28:48.425Z,100454.25
2022-10-28T19:31:24.762Z,100461.28
2022-10-28T19:33:55.272Z,100447.16
2022-10-28T19:36:27.134Z,100464.44
2022-10-28T19:38:54.966Z,100462.53
2022-10-28T19:41:24.806Z,100459.28
2022-10-28T19:43:58.230Z,100461.44
2022-10-28T19:46:27.249Z,100459.63
2022-10-28T19:48:56.677Z,100459.31
2022-10-28T19:51:27.327Z,100472.31
2022-10-28T19:53:57.037Z,100461.81
2022-10-28T19:56:24.030Z,100461.94
2022-10-28T19:58:53.565Z,100474.81
2022-10-28T20:01:22.204Z,100469.53
2022-10-28T20:03:53.201Z,100474.06
2022-10-28T20:06:25.598Z,100476.78
2022-10-28T20:08:53.195Z,100471.66
2022-10-28T20:11:25.886Z,100467.59
2022-10-28T20:14:02.374Z,100468.47
2022-10-28T20:16:29.418Z,100472.88
2022-10-28T20:18:57.767Z,100474.31
2022-10-28T20:21:30.226Z,100483.75
2022-10-28T20:23:58.169Z,100482.84
2022-10-28T20:26:30.750Z,100482.84
2022-10-28T20:28:58.281Z,100475.75
2022-10-28T20:31:27.295Z,100477.56
2022-10-28T20:34:03.921Z,100471.66
2022-10-28T20:36:39.036Z,100468.84
2022-10-28T20:39:13.825Z,100480.03
2022-10-28T20:41:42.076Z,100473.63
2022-10-28T20:44:08.893Z,100473.41
2022-10-28T20:46:36.320Z,100473.53
2022-10-28T20:49:04.194Z,100473.25
2022-10-28T20:51:32.497Z,100475.84
2022-10-28T20:54:00.317Z,100482.75
2022-10-28T20:56:29.671Z,100476.34
2022-10-28T20:58:58.113Z,100475.63
2022-10-28T21:01:30.864Z,100468.47
2022-10-28T21:04:00.526Z,100477.13
2022-10-28T21:06:28.029Z,100471.81
2022-10-28T21:08:55.478Z,100472.72
2022-10-28T21:11:23.652Z,100470.81
2022-10-28T21:13:52.657Z,100475.06
2022-10-28T21:16:20.614Z,100470.47
2022-10-28T21:18:49.688Z,100470.34
2022-10-28T21:21:17.567Z,100480.75
2022-10-28T21:23:44.449Z,100479.84
2022-10-28T21:26:12.504Z,100475.31
2022-10-28T21:28:42.612Z,100477.97
2022-10-28T21:31:15.045Z,100468.03
2022-10-28T21:33:43.039Z,100470.75
2022-10-28T21:36:12.974Z,100469.72
2022-10-28T21:38:40.060Z,100459.34
2022-10-28T21:41:18.379Z,100464.69
2022-10-28T21:43:50.945Z,100461.56
2022-10-28T21:46:18.991Z,100462.16
2022-10-28T21:48:46.601Z,100457.53
2022-10-28T21:51:15.481Z,100456.44
2022-10-28T21:53:44.178Z,100459.88
2022-10-28T21:56:18.857Z,100459.31
2022-10-28T21:58:48.243Z,100456.56
2022-10-28T22:01:18.964Z,100452.59
2022-10-28T22:03:46.139Z,100448.38
2022-10-28T22:06:13.344Z,100448.34
2022-10-28T22:08:40.178Z,100454.50
2022-10-28T22:11:15.725Z,100463.00
2022-10-28T22:13:42.729Z,100454.03
2022-10-28T22:16:15.516Z,100455.00
2022-10-28T22:18:43.176Z,100441.94
2022-10-28T22:21:13.268Z,100449.00
2022-10-28T22:23:40.324Z,100447.56
2022-10-28T22:26:10.133Z,100454.41
2022-10-28T22:28:37.336Z,100449.06
2022-10-28T22:33:33.127Z,100435.72
2022-10-28T22:36:05.347Z,100444.53
2022-10-28T22:38:32.559Z,100446.34
2022-10-28T22:41:08.843Z,100434.69
2022-10-28T22:43:35.668Z,100434.56
2022-10-28T22:46:02.662Z,100431.75
2022-10-28T22:48:29.995Z,100432.69
2022-10-28T22:50:57.139Z,100432.53
2022-10-28T22:53:24.285Z,100435.84
2022-10-28T22:55:52.875Z,100434.28
2022-10-28T22:58:20.660Z,100431.28
2022-10-28T23:00:47.574Z,100437.28
2022-10-28T23:03:14.902Z,100432.81
2022-10-28T23:05:41.774Z,100431.16
2022-10-28T23:08:12.308Z,100433.09
2022-10-28T23:10:39.258Z,100429.78
2022-10-28T23:13:06.099Z,100429.09
2022-10-28T23:15:33.744Z,100424.97
2022-10-28T23:18:19.473Z,100433.53
2022-10-28T23:20:46.313Z,100431.72
2022-10-28T23:23:15.705Z,100428.25
2022-10-28T23:25:42.861Z,100433.13
2022-10-28T23:28:10.378Z,100436.47
2022-10-28T23:30:37.209Z,100443.22
2022-10-28T23:33:04.262Z,100448.53
2022-10-28T23:35:31.145Z,100442.50
2022-10-28T23:37:59.383Z,100430.06
2022-10-28T23:40:26.584Z,100438.84
2022-10-28T23:42:53.680Z,100451.81
2022-10-28T23:45:20.725Z,100445.50
2022-10-28T23:47:47.582Z,100444.88
2022-10-28T23:50:15.081Z,100445.50
2022-10-28T23:52:42.094Z,100441.00
2022-10-28T23:55:09.567Z,100435.50
2022-10-28T23:57:36.434Z,100432.66
